Time;durP1;ratioP1;P1;durP2;ratioP2;P2;SDS_P1;SDS_P2;PMS_P1;PMS_P2;Temp;Humidity;BMP_temperature;BMP_pressure;BME280_temperature;BME280_humidity;BME280_pressure;Samples;Min_cycle;Max_cycle;Signal;HPM_P1;HPM_P2
2023/04/24 00:00:21;;;;;;;;;;;;;;;9.60;100.00;94823.44;5076986;28;19920;-72
2023/04/24 00:02:47;;;;;;;;;;;;;;;9.58;100.00;94824.47;5070965;28;19924;-72
2023/04/24 00:05:14;;;;;;;;;;;;;;;9.62;100.00;94831.06;5067149;28;20018;-72
2023/04/24 00:07:40;;;;;;;;;;;;;;;9.55;100.00;94835.84;5071194;28;20027;-72
2023/04/24 00:10:09;;;;;;;;;;;;;;;9.62;100.00;94847.38;5063465;28;20018;-72
2023/04/24 00:12:35;;;;;;;;;;;;;;;9.57;100.00;94859.84;5069999;28;19920;-72
2023/04/24 00:15:01;;;;;;;;;;;;;;;9.57;100.00;94857.25;5065521;28;19928;-72
2023/04/24 00:17:28;;;;;;;;;;;;;;;9.55;100.00;94855.72;5066614;28;20288;-72
2023/04/24 00:19:58;;;;;;;;;;;;;;;9.54;100.00;94848.91;5071378;28;19921;-72
2023/04/24 00:22:24;;;;;;;;;;;;;;;9.57;100.00;94835.75;5072481;28;19943;-72
2023/04/24 00:24:51;;;;;;;;;;;;;;;9.59;100.00;94839.03;5064211;28;19920;-72
2023/04/24 00:27:18;;;;;;;;;;;;;;;9.54;100.00;94844.56;5078861;28;20525;-72
2023/04/24 00:29:44;;;;;;;;;;;;;;;9.59;100.00;94839.84;5069985;28;19920;-72
2023/04/24 00:32:11;;;;;;;;;;;;;;;9.70;100.00;94842.47;5063364;28;19982;-72
2023/04/24 00:34:37;;;;;;;;;;;;;;;9.67;100.00;94834.94;5065306;28;19978;-72
2023/04/24 00:37:03;;;;;;;;;;;;;;;9.83;100.00;94839.81;5073167;28;19970;-72
2023/04/24 00:39:30;;;;;;;;;;;;;;;9.80;100.00;94839.22;5068367;28;19967;-72
2023/04/24 00:41:56;;;;;;;;;;;;;;;9.79;100.00;94833.22;5079257;28;20444;-72
2023/04/24 00:44:24;;;;;;;;;;;;;;;9.67;100.00;94837.53;5066521;28;19932;-72
2023/04/24 00:46:54;;;;;;;;;;;;;;;9.62;100.00;94831.88;5060385;28;19962;-72
2023/04/24 00:49:20;;;;;;;;;;;;;;;9.54;100.00;94823.88;5069710;28;20011;-72
2023/04/24 00:51:46;;;;;;;;;;;;;;;9.61;100.00;94824.25;5075409;28;19984;-72
2023/04/24 00:54:13;;;;;;;;;;;;;;;9.58;100.00;94824.47;5068560;28;19974;-72
2023/04/24 00:56:39;;;;;;;;;;;;;;;9.65;100.00;94821.31;5068110;28;19966;-72
2023/04/24 00:59:06;;;;;;;;;;;;;;;9.51;100.00;94818.94;5067389;28;19928;-72
2023/04/24 01:01:34;;;;;;;;;;;;;;;9.59;100.00;94829.53;5069578;28;20664;-72
2023/04/24 01:04:00;;;;;;;;;;;;;;;9.52;100.00;94828.31;5073492;28;19939;-72
2023/04/24 01:06:28;;;;;;;;;;;;;;;9.48;100.00;94824.31;5071522;28;20330;-72
2023/04/24 01:08:55;;;;;;;;;;;;;;;9.52;100.00;94817.97;5073055;28;19919;-72
2023/04/24 01:11:21;;;;;;;;;;;;;;;9.60;100.00;94823.44;5068935;28;19951;-72
2023/04/24 01:13:48;;;;;;;;;;;;;;;9.53;100.00;94808.47;5072329;28;19920;-72
2023/04/24 01:16:15;;;;;;;;;;;;;;;9.58;100.00;94809.78;5065243;28;19982;-72
2023/04/24 01:18:43;;;;;;;;;;;;;;;9.60;100.00;94807.06;5074931;28;19963;-72
2023/04/24 01:21:09;;;;;;;;;;;;;;;9.49;100.00;94801.88;5067526;28;19924;-72
2023/04/24 01:23:37;;;;;;;;;;;;;;;9.56;100.00;94813.41;5074692;28;19920;-72
2023/04/24 01:26:03;;;;;;;;;;;;;;;9.51;100.00;94810.34;5067366;28;19928;-72
2023/04/24 01:28:29;;;;;;;;;;;;;;;9.40;100.00;94808.56;5069947;28;19920;-72
2023/04/24 01:30:56;;;;;;;;;;;;;;;9.38;100.00;94807.81;5065830;28;19920;-72
2023/04/24 01:33:23;;;;;;;;;;;;;;;9.32;100.00;94803.13;5072932;28;20032;-72
2023/04/24 01:35:50;;;;;;;;;;;;;;;9.29;100.00;94804.16;5078661;28;20057;-72
2023/04/24 01:38:16;;;;;;;;;;;;;;;9.26;100.00;94796.63;5078054;28;19966;-72
2023/04/24 01:40:44;;;;;;;;;;;;;;;9.21;100.00;94801.31;5070442;28;19932;-72
2023/04/24 01:43:10;;;;;;;;;;;;;;;9.28;100.00;94799.13;5070733;28;19973;-72
2023/04/24 01:45:36;;;;;;;;;;;;;;;9.28;100.00;94812.88;5071964;28;19967;-72
2023/04/24 01:48:03;;;;;;;;;;;;;;;9.23;100.00;94798.63;5083077;28;19932;-72
2023/04/24 01:50:30;;;;;;;;;;;;;;;9.14;100.00;94789.78;5081354;28;20431;-72
2023/04/24 01:52:56;;;;;;;;;;;;;;;9.23;100.00;94786.53;5079936;28;20461;-72
2023/04/24 01:55:22;;;;;;;;;;;;;;;9.26;100.00;94786.31;5077932;28;20313;-72
2023/04/24 01:57:50;;;;;;;;;;;;;;;9.16;100.00;94783.59;5071936;28;19924;-72
2023/04/24 02:00:17;;;;;;;;;;;;;;;9.28;100.00;94786.22;5069869;28;19930;-72
2023/04/24 02:02:43;;;;;;;;;;;;;;;9.18;100.00;94802.38;5074024;28;19924;-72
2023/04/24 02:05:10;;;;;;;;;;;;;;;9.17;100.00;94792.97;5076816;28;19927;-72
2023/04/24 02:07:37;;;;;;;;;;;;;;;9.13;100.00;94795.91;5080285;28;19925;-72
2023/04/24 02:10:03;;;;;;;;;;;;;;;9.17;100.00;94805.88;5068336;28;20348;-72
2023/04/24 02:12:30;;;;;;;;;;;;;;;9.12;100.00;94812.31;5076710;28;19999;-72
2023/04/24 02:14:57;;;;;;;;;;;;;;;9.10;100.00;94804.69;5070009;28;19951;-72
2023/04/24 02:17:24;;;;;;;;;;;;;;;9.11;100.00;94802.91;5074033;28;19923;-72
2023/04/24 02:19:50;;;;;;;;;;;;;;;9.15;100.00;94796.59;5064899;28;19966;-73
2023/04/24 02:22:16;;;;;;;;;;;;;;;9.02;100.00;94808.75;5077058;28;19978;-73
2023/04/24 02:24:42;;;;;;;;;;;;;;;8.99;100.00;94807.22;5075135;28;20379;-71
2023/04/24 02:27:09;;;;;;;;;;;;;;;9.04;100.00;94805.13;5082339;28;19919;-72
2023/04/24 02:29:35;;;;;;;;;;;;;;;8.99;100.00;94804.63;5073400;28;19973;-72
2023/04/24 02:32:03;;;;;;;;;;;;;;;9.04;100.00;94794.78;5076335;28;19925;-72
2023/04/24 02:34:29;;;;;;;;;;;;;;;9.17;100.00;94789.56;5074214;28;19920;-71
2023/04/24 02:36:55;;;;;;;;;;;;;;;9.12;100.00;94795.09;5071419;28;19921;-72
2023/04/24 02:39:22;;;;;;;;;;;;;;;9.09;100.00;94802.22;5068288;28;20284;-72
2023/04/24 02:41:48;;;;;;;;;;;;;;;9.00;100.00;94800.28;5079048;28;19997;-72
2023/04/24 02:44:14;;;;;;;;;;;;;;;8.98;100.00;94791.84;5078835;28;20033;-72
2023/04/24 02:46:41;;;;;;;;;;;;;;;8.89;100.00;94791.53;5080990;28;20370;-72
2023/04/24 02:49:09;;;;;;;;;;;;;;;8.94;100.00;94796.41;5070886;28;19963;-72
2023/04/24 02:51:37;;;;;;;;;;;;;;;8.98;100.00;94794.44;5075842;28;19921;-72
2023/04/24 02:54:04;;;;;;;;;;;;;;;9.00;100.00;94795.94;5083739;28;19931;-73
2023/04/24 02:56:30;;;;;;;;;;;;;;;8.94;100.00;94792.06;5075160;28;19924;-73
2023/04/24 02:58:56;;;;;;;;;;;;;;;8.84;100.00;94787.66;5081156;28;19924;-73
2023/04/24 03:01:23;;;;;;;;;;;;;;;8.77;100.00;94791.63;5065747;28;19973;-73
2023/04/24 03:03:49;;;;;;;;;;;;;;;8.84;100.00;94798.00;5069004;28;19920;-73
2023/04/24 03:06:16;;;;;;;;;;;;;;;8.83;100.00;94797.16;5070617;28;20386;-73
2023/04/24 03:08:43;;;;;;;;;;;;;;;8.78;100.00;94801.81;5077117;28;20308;-73
2023/04/24 03:11:09;;;;;;;;;;;;;;;8.69;100.00;94797.31;5069557;28;19920;-73
2023/04/24 03:13:35;;;;;;;;;;;;;;;8.72;100.00;94795.34;5077293;28;19920;-73
2023/04/24 03:16:01;;;;;;;;;;;;;;;8.75;100.00;94796.91;5066826;28;19955;-72
2023/04/24 03:18:28;;;;;;;;;;;;;;;8.70;100.00;94789.47;5074159;28;20467;-72
2023/04/24 03:20:54;;;;;;;;;;;;;;;8.77;100.00;94787.28;5073440;28;19924;-72
2023/04/24 03:23:22;;;;;;;;;;;;;;;8.73;100.00;94771.16;5070702;28;19995;-73
2023/04/24 03:25:48;;;;;;;;;;;;;;;8.72;100.00;94769.53;5058828;28;19924;-72
2023/04/24 03:28:14;;;;;;;;;;;;;;;8.65;100.00;94768.31;5067378;28;19925;-72
2023/04/24 03:30:41;;;;;;;;;;;;;;;8.67;100.00;94773.38;5073537;28;19920;-73
2023/04/24 03:33:07;;;;;;;;;;;;;;;8.61;100.00;94769.47;5077136;28;19977;-72
2023/04/24 03:35:33;;;;;;;;;;;;;;;8.57;100.00;94773.22;5077551;28;19966;-72
2023/04/24 03:37:59;;;;;;;;;;;;;;;8.64;100.00;94771.84;5071735;28;19921;-72
2023/04/24 03:40:29;;;;;;;;;;;;;;;8.53;100.00;94766.63;5063579;28;20429;-72
2023/04/24 03:42:55;;;;;;;;;;;;;;;8.61;100.00;94774.63;5082554;28;19920;-72
2023/04/24 03:45:21;;;;;;;;;;;;;;;8.54;100.00;94775.19;5072262;28;20276;-72
2023/04/24 03:47:48;;;;;;;;;;;;;;;8.54;100.00;94782.94;5079028;28;19973;-72
2023/04/24 03:50:14;;;;;;;;;;;;;;;8.53;100.00;94789.84;5073547;28;19924;-72
2023/04/24 03:52:40;;;;;;;;;;;;;;;8.47;100.00;94793.66;5076268;28;20375;-72
2023/04/24 03:55:07;;;;;;;;;;;;;;;8.39;100.00;94805.47;5072571;28;20447;-72
2023/04/24 03:57:35;;;;;;;;;;;;;;;8.21;100.00;94830.75;5071580;28;19927;-72
2023/04/24 04:00:01;;;;;;;;;;;;;;;7.56;100.00;94820.50;5070875;28;19929;-72
2023/04/24 04:02:27;;;;;;;;;;;;;;;7.43;100.00;94829.06;5069701;28;19931;-72
2023/04/24 04:04:54;;;;;;;;;;;;;;;7.33;100.00;94843.44;5069599;28;19923;-72
2023/04/24 04:07:20;;;;;;;;;;;;;;;7.22;100.00;94835.59;5075429;28;20466;-71
2023/04/24 04:09:46;;;;;;;;;;;;;;;7.18;100.00;94853.00;5066258;28;20306;-72
2023/04/24 04:12:13;;;;;;;;;;;;;;;7.08;100.00;94851.91;5061288;28;20267;-71
2023/04/24 04:14:41;;;;;;;;;;;;;;;7.14;100.00;94855.88;5060873;28;20012;-72
2023/04/24 04:17:07;;;;;;;;;;;;;;;7.17;100.00;94851.34;5064940;28;19920;-72
2023/04/24 04:19:33;;;;;;;;;;;;;;;7.20;100.00;94855.47;5069096;28;19920;-72
2023/04/24 04:21:59;;;;;;;;;;;;;;;7.14;100.00;94854.13;5058088;28;19924;-72
2023/04/24 04:24:26;;;;;;;;;;;;;;;7.14;100.00;94858.44;5065825;28;20649;-72
2023/04/24 04:26:56;;;;;;;;;;;;;;;7.10;100.00;94865.53;5061813;28;19920;-72
2023/04/24 04:29:23;;;;;;;;;;;;;;;7.13;100.00;94861.94;5060002;28;20403;-73
2023/04/24 04:31:51;;;;;;;;;;;;;;;7.19;100.00;94871.84;5067163;28;19921;-74
2023/04/24 04:34:18;;;;;;;;;;;;;;;7.14;100.00;94871.31;5064375;28;19921;-72
2023/04/24 04:36:46;;;;;;;;;;;;;;;7.23;100.00;94869.00;5067786;28;19920;-75
2023/04/24 04:39:14;;;;;;;;;;;;;;;7.27;100.00;94872.19;5062976;28;19921;-75
2023/04/24 04:41:40;;;;;;;;;;;;;;;7.23;100.00;94873.28;5076439;28;19921;-74
2023/04/24 04:44:08;;;;;;;;;;;;;;;7.20;100.00;94879.47;5073126;28;19924;-73
2023/04/24 04:46:36;;;;;;;;;;;;;;;7.26;100.00;94879.06;5068752;28;19968;-72
2023/04/24 04:49:04;;;;;;;;;;;;;;;7.24;100.00;94874.97;5081765;28;19920;-72
2023/04/24 04:51:30;;;;;;;;;;;;;;;7.20;100.00;94883.81;5077338;28;19990;-72
2023/04/24 04:53:57;;;;;;;;;;;;;;;7.20;100.00;94878.66;5078746;28;19939;-70
2023/04/24 04:56:23;;;;;;;;;;;;;;;7.35;100.00;94876.84;5071017;28;19920;-73
2023/04/24 04:58:49;;;;;;;;;;;;;;;7.32;100.00;94882.19;5063475;28;19924;-74
2023/04/24 05:01:15;;;;;;;;;;;;;;;7.34;100.00;94888.06;5059272;28;19928;-74
2023/04/24 05:03:42;;;;;;;;;;;;;;;7.27;100.00;94913.41;5062179;28;19928;-73
2023/04/24 05:06:09;;;;;;;;;;;;;;;7.45;100.00;94906.22;5063137;28;19921;-73
2023/04/24 05:08:36;;;;;;;;;;;;;;;7.34;100.00;94906.94;5078276;28;19928;-72
2023/04/24 05:11:02;;;;;;;;;;;;;;;7.45;100.00;94913.97;5065324;28;19921;-72
2023/04/24 05:13:28;;;;;;;;;;;;;;;7.41;100.00;94922.81;5068782;28;19928;-72
2023/04/24 05:15:55;;;;;;;;;;;;;;;7.39;100.00;94924.66;5067769;28;19973;-72
2023/04/24 05:18:21;;;;;;;;;;;;;;;7.38;100.00;94913.53;5069164;28;20252;-72
2023/04/24 05:20:47;;;;;;;;;;;;;;;7.36;100.00;94933.41;5065396;28;19919;-72
2023/04/24 05:23:15;;;;;;;;;;;;;;;7.44;100.00;94932.94;5068273;28;20407;-72
2023/04/24 05:25:41;;;;;;;;;;;;;;;7.45;100.00;94930.28;5071075;28;20342;-72
2023/04/24 05:28:07;;;;;;;;;;;;;;;7.60;100.00;94933.63;5076982;28;19927;-72
2023/04/24 05:30:34;;;;;;;;;;;;;;;7.78;100.00;94933.31;5061632;28;19920;-72
2023/04/24 05:33:00;;;;;;;;;;;;;;;7.80;100.00;94942.63;5062947;28;19974;-72
2023/04/24 05:35:26;;;;;;;;;;;;;;;7.87;100.00;94936.13;5068344;28;19928;-71
2023/04/24 05:37:52;;;;;;;;;;;;;;;7.89;100.00;94939.44;5059478;28;19928;-73
2023/04/24 05:40:20;;;;;;;;;;;;;;;7.85;100.00;94945.72;5060761;28;19924;-74
2023/04/24 05:42:46;;;;;;;;;;;;;;;7.90;100.00;94951.41;5065156;28;19929;-74
2023/04/24 05:45:16;;;;;;;;;;;;;;;7.91;100.00;94952.25;5069797;28;19920;-76
2023/04/24 05:47:43;;;;;;;;;;;;;;;7.97;100.00;94946.66;5071290;28;19927;-74
2023/04/24 05:50:09;;;;;;;;;;;;;;;7.86;100.00;94955.13;5073675;28;19920;-75
2023/04/24 05:52:36;;;;;;;;;;;;;;;7.85;100.00;94958.59;5069431;28;19978;-74
2023/04/24 05:55:02;;;;;;;;;;;;;;;7.85;100.00;94955.19;5084135;28;20332;-74
2023/04/24 05:57:30;;;;;;;;;;;;;;;7.88;100.00;94955.84;5068496;28;19935;-74
2023/04/24 05:59:56;;;;;;;;;;;;;;;7.95;100.00;94959.66;5068715;28;19928;-74
2023/04/24 06:02:22;;;;;;;;;;;;;;;8.15;100.00;94960.91;5067372;28;19920;-74
2023/04/24 06:04:48;;;;;;;;;;;;;;;8.17;100.00;94960.84;5063180;28;20019;-72
2023/04/24 06:07:15;;;;;;;;;;;;;;;8.38;100.00;94963.75;5070765;28;19924;-73
2023/04/24 06:09:41;;;;;;;;;;;;;;;8.44;100.00;94958.19;5072111;28;19924;-75
2023/04/24 06:12:08;;;;;;;;;;;;;;;8.41;100.00;94964.38;5077576;28;19927;-75
2023/04/24 06:14:36;;;;;;;;;;;;;;;8.46;100.00;94969.25;5073787;28;20352;-74
2023/04/24 06:17:02;;;;;;;;;;;;;;;8.49;100.00;94958.69;5082917;28;20006;-74
2023/04/24 06:19:28;;;;;;;;;;;;;;;8.89;100.00;94956.81;5079768;28;19924;-74
2023/04/24 06:21:55;;;;;;;;;;;;;;;9.01;100.00;94970.66;5075298;28;19920;-74
2023/04/24 06:24:21;;;;;;;;;;;;;;;9.13;100.00;94966.38;5069677;28;19928;-76
2023/04/24 06:26:47;;;;;;;;;;;;;;;9.11;100.00;94971.66;5066824;28;19973;-77
2023/04/24 06:29:14;;;;;;;;;;;;;;;9.09;100.00;94968.34;5080260;28;19936;-75
2023/04/24 06:31:41;;;;;;;;;;;;;;;9.25;100.00;94964.69;5070252;28;19924;-75
2023/04/24 06:34:07;;;;;;;;;;;;;;;9.16;100.00;94969.59;5073256;28;19920;-75
2023/04/24 06:36:34;;;;;;;;;;;;;;;9.17;100.00;94980.75;5063841;28;19927;-73
2023/04/24 06:39:00;;;;;;;;;;;;;;;9.00;100.00;94984.47;5064614;28;19927;-75
2023/04/24 06:41:27;;;;;;;;;;;;;;;9.08;100.00;94986.53;5075650;28;19924;-75
2023/04/24 06:43:53;;;;;;;;;;;;;;;9.21;100.00;94995.09;5062272;28;19924;-75
2023/04/24 06:46:21;;;;;;;;;;;;;;;8.70;100.00;94990.00;5061992;28;19920;-74
2023/04/24 06:48:49;;;;;;;;;;;;;;;8.89;100.00;94987.78;5081389;28;19979;-75
2023/04/24 06:51:17;;;;;;;;;;;;;;;8.86;100.00;94993.19;5075477;28;19921;-75
2023/04/24 06:53:43;;;;;;;;;;;;;;;8.87;100.00;94997.41;5087389;28;19921;-72
2023/04/24 06:56:10;;;;;;;;;;;;;;;8.78;100.00;95004.97;5078244;28;19966;-74
2023/04/24 06:58:36;;;;;;;;;;;;;;;8.78;100.00;95003.19;5071163;28;19924;-73
2023/04/24 07:01:02;;;;;;;;;;;;;;;8.70;100.00;95002.91;5080220;28;19974;-73
2023/04/24 07:03:28;;;;;;;;;;;;;;;8.79;100.00;95006.59;5073117;28;19920;-73
2023/04/24 07:05:57;;;;;;;;;;;;;;;8.86;100.00;95010.41;5072033;28;19977;-75
2023/04/24 07:08:23;;;;;;;;;;;;;;;8.79;100.00;95015.19;5063491;28;19927;-76
2023/04/24 07:10:50;;;;;;;;;;;;;;;8.82;100.00;95007.22;5080061;28;20269;-75
2023/04/24 07:13:16;;;;;;;;;;;;;;;8.73;100.00;95006.09;5076897;28;20015;-75
2023/04/24 07:15:43;;;;;;;;;;;;;;;8.75;100.00;95005.16;5076438;28;20436;-75
2023/04/24 07:18:09;;;;;;;;;;;;;;;8.88;100.00;95011.16;5081489;28;19924;-72
2023/04/24 07:20:35;;;;;;;;;;;;;;;8.83;100.00;95014.06;5075903;28;20375;-72
2023/04/24 07:23:03;;;;;;;;;;;;;;;8.77;100.00;95016.22;5072248;28;20344;-72
2023/04/24 07:25:29;;;;;;;;;;;;;;;8.62;100.00;95011.16;5079633;28;19924;-72
2023/04/24 07:27:55;;;;;;;;;;;;;;;8.62;100.00;95015.50;5078452;28;19931;-72
2023/04/24 07:30:22;;;;;;;;;;;;;;;8.65;100.00;95015.28;5078517;28;20440;-71
2023/04/24 07:32:48;;;;;;;;;;;;;;;8.59;100.00;95023.44;5060926;28;19920;-71
2023/04/24 07:35:14;;;;;;;;;;;;;;;8.51;100.00;95034.28;5072664;28;19920;-72
2023/04/24 07:37:45;;;;;;;;;;;;;;;8.46;100.00;95037.16;5074159;28;19928;-73
2023/04/24 07:40:13;;;;;;;;;;;;;;;8.51;100.00;95038.63;5071044;28;19924;-72
2023/04/24 07:42:39;;;;;;;;;;;;;;;8.73;100.00;95044.81;5070864;28;20011;-72
2023/04/24 07:45:06;;;;;;;;;;;;;;;9.14;100.00;95050.69;5075275;28;19936;-71
2023/04/24 07:47:32;;;;;;;;;;;;;;;9.17;100.00;95040.97;5068213;28;19950;-72
2023/04/24 07:49:59;;;;;;;;;;;;;;;9.22;100.00;95045.81;5078834;28;19981;-72
2023/04/24 07:52:25;;;;;;;;;;;;;;;8.95;100.00;95044.19;5066008;28;19927;-71
2023/04/24 07:54:58;;;;;;;;;;;;;;;8.86;100.00;95044.84;5070134;28;19981;-69
2023/04/24 07:57:25;;;;;;;;;;;;;;;9.21;100.00;95052.75;5070279;28;19921;-73
2023/04/24 07:59:52;;;;;;;;;;;;;;;9.09;100.00;95047.63;5069425;28;19924;-73
2023/04/24 08:02:18;;;;;;;;;;;;;;;9.20;100.00;95058.84;5076454;28;20014;-71
2023/04/24 08:04:45;;;;;;;;;;;;;;;9.43;100.00;95056.44;5076463;28;19966;-72
2023/04/24 08:07:12;;;;;;;;;;;;;;;9.65;100.00;95068.69;5080806;28;19963;-72
2023/04/24 08:09:38;;;;;;;;;;;;;;;9.44;100.00;95058.91;5064742;28;20356;-72
2023/04/24 08:12:05;;;;;;;;;;;;;;;9.40;100.00;95065.22;5071511;28;19970;-72
2023/04/24 08:14:32;;;;;;;;;;;;;;;9.69;100.00;95083.06;5070588;28;19924;-72
2023/04/24 08:17:00;;;;;;;;;;;;;;;9.34;100.00;95075.97;5075470;28;19924;-73
2023/04/24 08:19:26;;;;;;;;;;;;;;;9.27;100.00;95074.78;5070541;28;19924;-72
2023/04/24 08:21:52;;;;;;;;;;;;;;;9.43;100.00;95070.19;5077637;28;20565;-72
2023/04/24 08:24:19;;;;;;;;;;;;;;;9.91;100.00;95074.63;5066722;28;19920;-73
2023/04/24 08:26:45;;;;;;;;;;;;;;;9.72;100.00;95069.09;5077486;28;19924;-72
2023/04/24 08:29:11;;;;;;;;;;;;;;;9.62;100.00;95074.91;5073468;28;19970;-72
2023/04/24 08:31:39;;;;;;;;;;;;;;;9.40;100.00;95075.56;5069985;28;20401;-72
2023/04/24 08:34:05;;;;;;;;;;;;;;;9.35;100.00;95090.56;5070101;28;19929;-73
2023/04/24 08:36:32;;;;;;;;;;;;;;;9.20;100.00;95089.88;5060901;28;19994;-71
2023/04/24 08:38:58;;;;;;;;;;;;;;;9.30;100.00;95084.88;5068232;28;19921;-72
2023/04/24 08:41:26;;;;;;;;;;;;;;;9.00;100.00;95094.72;5080928;28;20279;-72
2023/04/24 08:43:52;;;;;;;;;;;;;;;8.90;100.00;95102.28;5073210;28;20379;-73
2023/04/24 08:46:19;;;;;;;;;;;;;;;8.93;100.00;95107.22;5071061;28;19924;-73
2023/04/24 08:48:46;;;;;;;;;;;;;;;9.34;100.00;95106.16;5083898;28;19973;-72
2023/04/24 08:51:13;;;;;;;;;;;;;;;9.60;100.00;95109.53;5073821;28;19933;-72
2023/04/24 08:53:39;;;;;;;;;;;;;;;9.85;100.00;95109.47;5082736;28;19920;-72
2023/04/24 08:56:06;;;;;;;;;;;;;;;9.59;100.00;95119.06;5072768;28;19925;-72
2023/04/24 08:58:32;;;;;;;;;;;;;;;9.33;100.00;95101.94;5070398;28;20434;-71
2023/04/24 09:00:59;;;;;;;;;;;;;;;9.68;100.00;95117.63;5071676;28;19974;-72
2023/04/24 09:03:27;;;;;;;;;;;;;;;9.29;100.00;95114.25;5074279;28;19920;-73
2023/04/24 09:05:56;;;;;;;;;;;;;;;10.03;100.00;95106.53;5073367;28;19921;-73
2023/04/24 09:08:24;;;;;;;;;;;;;;;10.05;100.00;95109.81;5075050;28;19929;-72
2023/04/24 09:10:51;;;;;;;;;;;;;;;10.18;100.00;95128.72;5074660;28;19965;-73
2023/04/24 09:13:17;;;;;;;;;;;;;;;9.77;100.00;95126.47;5068113;28;20433;-73
2023/04/24 09:15:43;;;;;;;;;;;;;;;9.64;100.00;95131.66;5067598;28;19920;-72
2023/04/24 09:18:10;;;;;;;;;;;;;;;9.60;100.00;95127.63;5068933;28;19928;-73
2023/04/24 09:20:56;;;;;;;;;;;;;;;9.44;100.00;95128.69;5068139;28;19932;-73
2023/04/24 09:23:24;;;;;;;;;;;;;;;9.28;100.00;95138.44;5062343;28;20019;-72
2023/04/24 09:25:54;;;;;;;;;;;;;;;8.85;100.00;95141.28;5063472;28;20006;-72
2023/04/24 09:28:25;;;;;;;;;;;;;;;8.93;100.00;95139.03;5069574;28;19982;-72
2023/04/24 09:31:02;;;;;;;;;;;;;;;9.50;100.00;95142.16;5077740;28;19920;-72
2023/04/24 09:33:29;;;;;;;;;;;;;;;9.09;100.00;95153.53;5078441;28;19921;-72
2023/04/24 09:35:55;;;;;;;;;;;;;;;9.08;100.00;95157.84;5076290;28;20425;-71
2023/04/24 09:38:31;;;;;;;;;;;;;;;9.50;100.00;95162.81;5074533;28;20383;-71
2023/04/24 09:40:59;;;;;;;;;;;;;;;9.49;100.00;95155.97;5073713;28;19920;-71
2023/04/24 09:43:27;;;;;;;;;;;;;;;9.74;100.00;95158.53;5079601;28;20058;-72
2023/04/24 09:45:56;;;;;;;;;;;;;;;9.74;100.00;95161.13;5076533;28;19924;-72
2023/04/24 09:48:30;;;;;;;;;;;;;;;10.28;97.44;95157.41;5075329;28;19924;-72
2023/04/24 09:50:56;;;;;;;;;;;;;;;10.25;95.17;95155.84;5076401;28;19955;-72
2023/04/24 09:53:26;;;;;;;;;;;;;;;10.67;95.28;95156.28;5081665;28;19965;-72
2023/04/24 09:55:53;;;;;;;;;;;;;;;10.70;93.96;95158.66;5078600;28;20003;-72
2023/04/24 09:58:19;;;;;;;;;;;;;;;10.72;91.83;95161.16;5071575;28;20268;-72
2023/04/24 10:00:46;;;;;;;;;;;;;;;11.26;93.16;95160.56;5077469;28;20469;-71
2023/04/24 10:03:12;;;;;;;;;;;;;;;11.35;88.82;95165.91;5065997;28;20330;-72
2023/04/24 10:05:39;;;;;;;;;;;;;;;11.22;87.73;95162.56;5072287;28;20342;-73
2023/04/24 10:08:06;;;;;;;;;;;;;;;10.86;86.51;95172.16;5071685;28;20047;-73
2023/04/24 10:10:35;;;;;;;;;;;;;;;10.65;86.37;95177.13;5080864;28;19965;-73
2023/04/24 10:13:01;;;;;;;;;;;;;;;10.66;81.41;95165.00;5075431;28;20010;-73
2023/04/24 10:15:28;;;;;;;;;;;;;;;10.31;88.08;95172.72;5066543;28;19938;-73
2023/04/24 10:17:55;;;;;;;;;;;;;;;10.55;80.79;95178.72;5071819;28;20321;-73
2023/04/24 10:20:22;;;;;;;;;;;;;;;10.26;82.04;95169.63;5063651;28;19924;-73
2023/04/24 10:22:49;;;;;;;;;;;;;;;10.10;82.25;95186.19;5075784;28;19930;-73
2023/04/24 10:25:16;;;;;;;;;;;;;;;9.80;83.11;95184.00;5069412;28;19920;-73
2023/04/24 10:27:45;;;;;;;;;;;;;;;9.98;85.22;95194.00;5073272;28;19924;-71
2023/04/24 10:30:13;;;;;;;;;;;;;;;10.21;85.61;95202.75;5078014;28;19928;-71
2023/04/24 10:32:39;;;;;;;;;;;;;;;10.21;83.28;95206.16;5066992;28;20015;-71
2023/04/24 10:35:07;;;;;;;;;;;;;;;9.83;82.71;95206.22;5081912;28;19920;-71
2023/04/24 10:37:35;;;;;;;;;;;;;;;9.75;85.03;95218.84;5078469;28;19920;-71
2023/04/24 10:40:02;;;;;;;;;;;;;;;9.70;85.29;95214.00;5087644;28;19924;-71
2023/04/24 10:42:28;;;;;;;;;;;;;;;9.35;89.65;95214.63;5063385;28;19925;-73
2023/04/24 10:44:57;;;;;;;;;;;;;;;9.28;87.08;95228.88;5081205;28;19920;-71
2023/04/24 10:47:25;;;;;;;;;;;;;;;9.21;90.95;95240.53;5079995;28;20358;-71
2023/04/24 10:49:51;;;;;;;;;;;;;;;8.68;92.82;95230.19;5065817;28;19959;-71
2023/04/24 10:52:17;;;;;;;;;;;;;;;9.06;91.35;95233.81;5066619;28;19920;-70
2023/04/24 10:54:45;;;;;;;;;;;;;;;9.23;90.02;95237.84;5081815;28;19963;-72
2023/04/24 10:57:29;;;;;;;;;;;;;;;9.33;89.78;95234.56;5076913;28;19927;-73
2023/04/24 11:02:52;;;;;;;;;;;;;;;9.29;90.84;95227.13;5097177;27;19930;-72
2023/04/24 11:05:19;;;;;;;;;;;;;;;9.57;91.46;95239.03;5084572;28;19925;-70
2023/04/24 11:08:04;;;;;;;;;;;;;;;9.17;92.08;95242.50;5096692;28;20271;-74
2023/04/24 11:10:30;;;;;;;;;;;;;;;8.92;95.38;95238.09;5099225;28;19980;-73
2023/04/24 11:12:56;;;;;;;;;;;;;;;8.90;94.20;95241.72;5094690;28;19932;-73
2023/04/24 11:15:22;;;;;;;;;;;;;;;8.92;95.77;95245.00;5083194;28;19978;-74
2023/04/24 11:17:50;;;;;;;;;;;;;;;9.12;94.40;95248.88;5102982;28;19970;-72
2023/04/24 11:20:17;;;;;;;;;;;;;;;8.87;95.22;95247.06;5091512;28;20035;-72
2023/04/24 11:22:44;;;;;;;;;;;;;;;9.24;92.79;95252.44;5095283;28;19928;-72
2023/04/24 11:25:11;;;;;;;;;;;;;;;9.55;91.22;95251.22;5089852;28;20594;-73
2023/04/24 11:27:39;;;;;;;;;;;;;;;9.74;92.64;95243.06;5098657;28;19924;-73
2023/04/24 11:30:06;;;;;;;;;;;;;;;9.50;93.13;95245.53;5094745;28;19924;-73
2023/04/24 11:32:35;;;;;;;;;;;;;;;9.73;91.08;95242.22;5092209;28;19990;-71
2023/04/24 11:35:06;;;;;;;;;;;;;;;9.53;91.22;95253.06;5097171;28;19927;-73
2023/04/24 11:37:35;;;;;;;;;;;;;;;9.39;91.47;95256.59;5101315;28;19956;-73
2023/04/24 11:40:01;;;;;;;;;;;;;;;9.26;91.54;95251.38;5099296;28;20023;-73
2023/04/24 11:42:28;;;;;;;;;;;;;;;9.26;91.18;95253.16;5101870;28;20265;-73
2023/04/24 11:44:55;;;;;;;;;;;;;;;9.23;91.89;95255.94;5100819;28;19924;-72
2023/04/24 11:47:27;;;;;;;;;;;;;;;9.32;90.85;95261.34;5092350;28;20023;-71
2023/04/24 11:49:54;;;;;;;;;;;;;;;9.24;89.47;95266.19;5083681;28;19931;-70
2023/04/24 11:52:21;;;;;;;;;;;;;;;9.26;88.40;95273.81;5099329;28;19935;-72
2023/04/24 11:54:49;;;;;;;;;;;;;;;9.35;86.54;95265.47;5090748;28;20334;-72
2023/04/24 11:57:15;;;;;;;;;;;;;;;9.53;87.28;95271.16;5092463;28;19925;-72
2023/04/24 11:59:42;;;;;;;;;;;;;;;9.39;88.36;95272.09;5093511;28;20340;-71
2023/04/24 12:02:08;;;;;;;;;;;;;;;9.52;89.33;95277.28;5104363;28;19935;-72
2023/04/24 12:04:41;;;;;;;;;;;;;;;9.58;88.83;95274.28;5117915;28;19928;-73
2023/04/24 12:07:08;;;;;;;;;;;;;;;9.83;89.61;95263.13;5114567;28;20367;-73
2023/04/24 12:09:46;;;;;;;;;;;;;;;9.67;87.88;95268.50;5113080;28;19928;-72
2023/04/24 12:12:12;;;;;;;;;;;;;;;9.55;87.59;95261.56;5117565;28;19995;-71
2023/04/24 12:14:45;;;;;;;;;;;;;;;9.35;90.09;95266.31;5103418;28;19935;-71
2023/04/24 12:17:12;;;;;;;;;;;;;;;9.44;89.50;95267.44;5103596;28;19977;-73
2023/04/24 12:19:38;;;;;;;;;;;;;;;9.40;89.55;95250.50;5093753;28;19978;-72
2023/04/24 12:22:05;;;;;;;;;;;;;;;9.65;90.36;95257.44;5101591;28;19959;-71
2023/04/24 12:24:32;;;;;;;;;;;;;;;9.85;89.65;95259.50;5094579;28;20023;-73
2023/04/24 12:27:01;;;;;;;;;;;;;;;9.82;92.99;95251.94;5099202;28;20339;-72
2023/04/24 12:29:27;;;;;;;;;;;;;;;9.86;92.53;95262.91;5099880;28;19967;-72
2023/04/24 12:31:55;;;;;;;;;;;;;;;9.65;93.52;95270.38;5102308;28;20398;-72
2023/04/24 12:34:22;;;;;;;;;;;;;;;9.28;100.00;95271.97;5103135;28;19932;-72
2023/04/24 12:36:48;;;;;;;;;;;;;;;9.11;100.00;95266.13;5097560;28;19924;-72
2023/04/24 12:39:18;;;;;;;;;;;;;;;9.18;100.00;95272.56;5094249;28;19973;-72
2023/04/24 12:41:51;;;;;;;;;;;;;;;9.20;100.00;95264.72;5104880;28;19924;-72
2023/04/24 12:44:19;;;;;;;;;;;;;;;8.86;100.00;95263.47;5105143;28;20462;-72
2023/04/24 12:46:45;;;;;;;;;;;;;;;8.95;100.00;95265.47;5111307;28;19924;-72
2023/04/24 12:49:12;;;;;;;;;;;;;;;9.23;100.00;95264.50;5100595;28;19931;-72